createdAt,value
2018-09-26T00:02:31.631Z,8.58
2018-09-26T00:04:59.667Z,8.55
2018-09-26T00:07:27.672Z,8.51
2018-09-26T00:09:55.699Z,8.48
2018-09-26T00:12:24.607Z,8.46
2018-09-26T00:14:52.620Z,8.45
2018-09-26T00:17:20.638Z,8.43
2018-09-26T00:19:48.639Z,8.41
2018-09-26T00:22:16.659Z,8.40
2018-09-26T00:24:45.108Z,8.38
2018-09-26T00:27:13.132Z,8.38
2018-09-26T00:29:41.140Z,8.39
2018-09-26T00:32:09.688Z,8.38
2018-09-26T00:34:37.701Z,8.36
2018-09-26T00:37:05.707Z,8.36
2018-09-26T00:39:33.879Z,8.36
2018-09-26T00:42:01.884Z,8.36
2018-09-26T00:44:29.885Z,8.36
2018-09-26T00:46:57.888Z,8.38
2018-09-26T00:49:25.972Z,8.40
2018-09-26T00:51:54.091Z,8.43
2018-09-26T00:54:22.255Z,8.45
2018-09-26T00:56:50.303Z,8.47
2018-09-26T00:59:18.352Z,8.50
2018-09-26T01:01:46.371Z,8.51
2018-09-26T01:04:14.376Z,8.53
2018-09-26T01:06:42.400Z,8.53
2018-09-26T01:09:11.687Z,8.56
2018-09-26T01:11:39.692Z,8.56
2018-09-26T01:14:07.784Z,8.58
2018-09-26T01:16:35.811Z,8.56
2018-09-26T01:19:04.848Z,8.53
2018-09-26T01:21:32.855Z,8.48
2018-09-26T01:24:01.012Z,8.48
2018-09-26T01:26:29.019Z,8.50
2018-09-26T01:28:57.037Z,8.49
2018-09-26T01:31:25.047Z,8.51
2018-09-26T01:33:53.059Z,8.52
2018-09-26T01:36:21.104Z,8.54
2018-09-26T01:38:49.268Z,8.55
2018-09-26T01:41:17.347Z,8.53
2018-09-26T01:43:45.295Z,8.55
2018-09-26T01:46:13.435Z,8.58
2018-09-26T01:48:41.447Z,8.57
2018-09-26T01:51:09.583Z,8.63
2018-09-26T01:53:37.940Z,8.68
2018-09-26T01:56:06.029Z,8.69
2018-09-26T01:58:34.100Z,8.71
2018-09-26T02:01:02.463Z,8.73
2018-09-26T02:03:31.369Z,8.75
2018-09-26T02:05:59.388Z,8.77
2018-09-26T02:08:27.599Z,8.79
2018-09-26T02:10:55.670Z,8.79
2018-09-26T02:13:30.387Z,8.79
2018-09-26T02:15:58.581Z,8.78
2018-09-26T02:18:26.643Z,8.75
2018-09-26T02:20:54.679Z,8.75
2018-09-26T02:23:23.251Z,8.77
2018-09-26T02:25:51.486Z,8.76
2018-09-26T02:28:19.617Z,8.77
2018-09-26T02:30:47.935Z,8.77
2018-09-26T02:33:15.953Z,8.80
2018-09-26T02:35:43.974Z,8.82
2018-09-26T02:38:12.115Z,8.82
2018-09-26T02:40:40.140Z,8.82
2018-09-26T02:43:08.161Z,8.85
2018-09-26T02:45:37.183Z,8.85
2018-09-26T02:48:05.344Z,8.87
2018-09-26T02:50:33.359Z,8.84
2018-09-26T02:53:01.364Z,8.85
2018-09-26T02:55:29.399Z,8.87
2018-09-26T02:57:57.599Z,8.92
2018-09-26T03:00:25.597Z,8.95
2018-09-26T03:02:53.748Z,8.97
2018-09-26T03:05:22.135Z,9.00
2018-09-26T03:07:50.201Z,8.99
2018-09-26T03:10:18.311Z,9.01
2018-09-26T03:12:46.359Z,9.00
2018-09-26T03:15:14.388Z,8.96
2018-09-26T03:17:42.573Z,8.97
2018-09-26T03:20:10.853Z,8.98
2018-09-26T03:22:38.863Z,8.99
2018-09-26T03:25:06.896Z,8.96
2018-09-26T03:27:34.913Z,8.94
2018-09-26T03:30:02.937Z,8.97
2018-09-26T03:32:31.211Z,8.98
2018-09-26T03:34:59.297Z,8.98
2018-09-26T03:37:27.351Z,8.97
2018-09-26T03:39:55.367Z,8.99
2018-09-26T03:42:23.803Z,8.97
2018-09-26T03:44:51.871Z,8.93
2018-09-26T03:47:19.967Z,8.94
2018-09-26T03:49:47.985Z,8.98
2018-09-26T03:52:16.318Z,9.00
2018-09-26T03:54:44.354Z,9.00
2018-09-26T03:57:12.374Z,9.01
2018-09-26T03:59:40.603Z,9.01
2018-09-26T04:02:08.675Z,8.99
2018-09-26T04:04:36.695Z,8.99
2018-09-26T04:07:05.768Z,8.98
2018-09-26T04:09:34.120Z,8.99
2018-09-26T04:12:02.191Z,8.97
2018-09-26T04:14:30.196Z,8.97
2018-09-26T04:16:58.584Z,8.94
2018-09-26T04:19:26.701Z,8.91
2018-09-26T04:21:54.717Z,8.88
2018-09-26T04:24:23.782Z,8.89
2018-09-26T04:26:52.302Z,8.89
2018-09-26T04:29:20.057Z,8.91
2018-09-26T04:31:48.944Z,8.93
2018-09-26T04:34:16.967Z,8.93
2018-09-26T04:36:44.995Z,8.94
2018-09-26T04:39:13.719Z,8.97
2018-09-26T04:41:41.979Z,9.00
2018-09-26T04:44:10.255Z,9.10
2018-09-26T04:46:38.284Z,9.09
2018-09-26T04:49:06.637Z,9.08
2018-09-26T04:51:35.273Z,9.02
2018-09-26T04:54:03.412Z,9.05
2018-09-26T04:56:31.623Z,9.07
2018-09-26T04:58:59.838Z,9.07
2018-09-26T05:01:27.899Z,9.09
2018-09-26T05:03:56.151Z,9.04
2018-09-26T05:06:24.167Z,9.05
2018-09-26T05:08:52.429Z,9.08
2018-09-26T05:11:20.491Z,9.13
2018-09-26T05:13:48.518Z,9.16
2018-09-26T05:16:16.533Z,9.18
2018-09-26T05:18:44.572Z,9.19
2018-09-26T05:21:12.803Z,9.16
2018-09-26T05:23:40.820Z,9.20
2018-09-26T05:26:08.823Z,9.19
2018-09-26T05:28:37.335Z,9.16
2018-09-26T05:31:05.370Z,9.09
2018-09-26T05:33:33.432Z,9.11
2018-09-26T05:36:01.448Z,9.15
2018-09-26T05:38:29.582Z,9.16
2018-09-26T05:40:57.612Z,9.18
2018-09-26T05:43:25.717Z,9.18
2018-09-26T05:45:53.736Z,9.16
2018-09-26T05:48:21.879Z,9.16
2018-09-26T05:50:49.938Z,9.16
2018-09-26T05:53:17.955Z,9.17
2018-09-26T05:55:45.987Z,9.17
2018-09-26T05:58:14.021Z,9.17
2018-09-26T06:00:42.044Z,9.19
2018-09-26T06:03:10.220Z,9.24
2018-09-26T06:05:38.236Z,9.26
2018-09-26T06:08:06.328Z,9.24
2018-09-26T06:10:34.787Z,9.23
2018-09-26T06:13:02.888Z,9.29
2018-09-26T06:15:30.839Z,9.30
2018-09-26T06:17:59.104Z,9.33
2018-09-26T06:20:27.123Z,9.38
2018-09-26T06:22:55.183Z,9.39
2018-09-26T06:25:23.246Z,9.43
2018-09-26T06:27:51.613Z,9.48
2018-09-26T06:30:19.643Z,9.50
2018-09-26T06:32:47.691Z,9.55
2018-09-26T06:35:15.820Z,9.60
2018-09-26T06:37:44.480Z,9.62
2018-09-26T06:40:12.580Z,9.66
2018-09-26T06:42:41.036Z,9.71
2018-09-26T06:45:09.531Z,9.77
2018-09-26T06:47:37.627Z,9.82
2018-09-26T06:50:05.591Z,9.86
2018-09-26T06:52:33.640Z,9.91
2018-09-26T06:55:01.644Z,9.92
2018-09-26T06:57:29.839Z,9.98
2018-09-26T06:59:58.095Z,9.99
2018-09-26T07:02:26.103Z,10.05
2018-09-26T07:04:54.124Z,10.12
2018-09-26T07:07:22.199Z,10.14
2018-09-26T07:09:50.208Z,10.20
2018-09-26T07:12:18.436Z,10.22
2018-09-26T07:14:46.467Z,10.26
2018-09-26T07:17:14.564Z,10.35
2018-09-26T07:19:42.599Z,10.40
2018-09-26T07:22:10.651Z,10.44
2018-09-26T07:24:38.660Z,10.50
2018-09-26T07:27:06.871Z,10.58
2018-09-26T07:29:34.927Z,10.64
2018-09-26T07:32:03.002Z,10.71
2018-09-26T07:34:38.520Z,10.79
2018-09-26T07:37:07.379Z,10.87
2018-09-26T07:39:36.280Z,10.95
2018-09-26T07:42:06.139Z,11.04
2018-09-26T07:44:34.191Z,11.10
2018-09-26T07:47:02.643Z,11.18
2018-09-26T07:49:30.692Z,11.23
2018-09-26T07:51:58.703Z,11.34
2018-09-26T07:54:26.747Z,11.43
2018-09-26T07:56:54.771Z,11.50
2018-09-26T07:59:23.125Z,11.59
2018-09-26T08:01:51.176Z,11.64
2018-09-26T08:04:19.191Z,11.68
2018-09-26T08:06:47.340Z,11.76
2018-09-26T08:09:15.435Z,11.83
2018-09-26T08:11:43.514Z,11.90
2018-09-26T08:14:11.520Z,12.00
2018-09-26T08:16:39.617Z,12.10
2018-09-26T08:19:07.675Z,12.17
2018-09-26T08:21:35.695Z,12.26
2018-09-26T08:24:03.916Z,12.35
2018-09-26T08:26:31.763Z,12.42
2018-09-26T08:28:59.779Z,12.53
2018-09-26T08:31:27.820Z,12.57
2018-09-26T08:33:55.839Z,12.68
2018-09-26T08:36:23.959Z,12.76
2018-09-26T08:38:52.053Z,12.80
2018-09-26T08:41:20.079Z,12.88
2018-09-26T08:43:48.111Z,12.95
2018-09-26T08:46:16.127Z,13.08
2018-09-26T08:48:44.772Z,13.16
2018-09-26T08:51:12.919Z,13.20
2018-09-26T08:53:40.959Z,13.27
2018-09-26T08:56:08.966Z,13.35
2018-09-26T08:58:36.983Z,13.48
2018-09-26T09:01:09.491Z,13.54
2018-09-26T09:03:37.503Z,13.57
2018-09-26T09:06:05.639Z,13.64
2018-09-26T09:08:34.008Z,13.75
2018-09-26T09:11:02.093Z,13.80
2018-09-26T09:13:30.149Z,13.86
2018-09-26T09:15:58.233Z,13.96
2018-09-26T09:18:26.300Z,14.04
2018-09-26T09:20:54.316Z,14.14
2018-09-26T09:23:22.450Z,14.20
2018-09-26T09:25:50.471Z,14.23
2018-09-26T09:28:18.491Z,14.25
2018-09-26T09:30:46.527Z,14.30
2018-09-26T09:33:14.562Z,14.41
2018-09-26T09:35:42.787Z,14.45
2018-09-26T09:38:10.873Z,14.50
2018-09-26T09:40:38.846Z,14.58
2018-09-26T09:43:07.295Z,14.64
2018-09-26T09:45:35.320Z,14.62
2018-09-26T09:48:03.352Z,14.74
2018-09-26T09:50:31.540Z,14.79
2018-09-26T09:52:59.579Z,14.83
2018-09-26T09:55:27.622Z,14.89
2018-09-26T09:57:55.911Z,14.87
2018-09-26T10:01:27.400Z,14.90
2018-09-26T10:03:56.705Z,15.02
2018-09-26T10:06:24.760Z,15.14
2018-09-26T10:08:53.920Z,15.27
2018-09-26T10:11:21.856Z,15.30
2018-09-26T10:13:49.904Z,15.39
2018-09-26T10:16:17.943Z,15.52
2018-09-26T10:18:46.220Z,15.55
2018-09-26T10:21:14.400Z,15.62
2018-09-26T10:23:42.422Z,15.73
2018-09-26T10:26:10.727Z,15.84
2018-09-26T10:28:38.744Z,16.01
2018-09-26T10:31:06.765Z,16.06
2018-09-26T10:33:34.788Z,16.17
2018-09-26T10:36:02.808Z,16.24
2018-09-26T10:38:30.820Z,16.39
2018-09-26T10:46:40.027Z,16.82
2018-09-26T10:49:08.390Z,16.87
2018-09-26T10:51:36.465Z,16.95
2018-09-26T10:54:04.963Z,17.10
2018-09-26T10:56:33.059Z,17.18
2018-09-26T10:59:01.547Z,17.35
2018-09-26T11:01:29.640Z,17.41
2018-09-26T11:03:57.668Z,17.59
2018-09-26T11:06:25.695Z,17.68
2018-09-26T11:08:53.710Z,17.73
2018-09-26T11:11:21.904Z,17.92
2018-09-26T11:13:49.943Z,18.12
2018-09-26T11:16:18.085Z,18.33
2018-09-26T11:18:46.136Z,18.60
2018-09-26T11:21:14.201Z,18.82
2018-09-26T11:23:42.212Z,18.86
2018-09-26T11:26:10.344Z,18.85
2018-09-26T11:28:38.273Z,18.85
2018-09-26T11:31:06.308Z,18.82
2018-09-26T11:33:34.586Z,18.79
2018-09-26T11:36:02.601Z,18.82
2018-09-26T11:38:30.612Z,19.02
2018-09-26T11:40:58.638Z,19.21
2018-09-26T11:43:26.660Z,19.39
2018-09-26T11:45:54.872Z,19.37
2018-09-26T11:48:23.074Z,19.39
2018-09-26T11:50:51.108Z,19.56
2018-09-26T11:53:19.154Z,19.63
2018-09-26T11:55:47.213Z,19.68
2018-09-26T11:58:16.293Z,19.65
2018-09-26T12:00:44.288Z,19.72
2018-09-26T12:03:13.201Z,19.78
2018-09-26T12:05:41.212Z,19.99
2018-09-26T12:08:09.289Z,20.10
2018-09-26T12:10:37.299Z,20.01
2018-09-26T12:13:05.336Z,20.17
2018-09-26T12:15:33.367Z,20.36
2018-09-26T12:18:01.400Z,20.42
2018-09-26T12:20:29.423Z,20.44
2018-09-26T12:22:57.448Z,20.51
2018-09-26T12:25:25.559Z,20.45
2018-09-26T12:27:53.711Z,20.42
2018-09-26T12:30:21.733Z,20.35
2018-09-26T12:32:50.060Z,20.34
2018-09-26T12:35:18.111Z,20.49
2018-09-26T12:37:46.128Z,20.61
2018-09-26T12:40:14.221Z,20.71
2018-09-26T12:42:42.277Z,20.78
2018-09-26T12:45:10.260Z,20.85
2018-09-26T12:47:38.287Z,20.94
2018-09-26T12:50:06.564Z,20.89
2018-09-26T12:52:34.608Z,20.85
2018-09-26T12:55:02.740Z,20.93
2018-09-26T12:57:30.763Z,20.85
2018-09-26T12:59:58.808Z,20.78
2018-09-26T13:02:26.937Z,20.90
2018-09-26T13:04:55.092Z,20.98
2018-09-26T13:07:23.152Z,20.94
2018-09-26T13:09:51.183Z,20.99
2018-09-26T13:12:19.270Z,21.07
2018-09-26T13:14:47.264Z,21.10
2018-09-26T13:17:15.293Z,21.04
2018-09-26T13:19:43.316Z,21.07
2018-09-26T13:22:12.010Z,21.07
2018-09-26T13:24:40.068Z,21.00
2018-09-26T13:27:08.117Z,21.12
2018-09-26T13:29:36.208Z,21.18
2018-09-26T13:32:04.994Z,21.20
2018-09-26T13:34:32.999Z,21.23
2018-09-26T13:37:01.174Z,21.12
2018-09-26T13:39:29.359Z,21.19
2018-09-26T13:41:57.368Z,21.25
2018-09-26T13:44:25.526Z,21.34
2018-09-26T13:46:53.617Z,21.26
2018-09-26T13:49:21.555Z,21.19
2018-09-26T13:51:49.580Z,21.21
2018-09-26T13:54:18.169Z,21.28
2018-09-26T13:56:46.164Z,21.24
2018-09-26T13:59:14.279Z,21.17
2018-09-26T14:01:42.792Z,21.21
2018-09-26T14:04:10.827Z,21.19
2018-09-26T14:06:38.846Z,21.18
2018-09-26T14:09:07.230Z,21.10
2018-09-26T14:11:35.272Z,21.00
2018-09-26T14:14:03.295Z,20.82
2018-09-26T14:16:31.548Z,20.72
2018-09-26T14:18:59.572Z,20.69
2018-09-26T14:21:27.636Z,20.77
2018-09-26T14:23:56.044Z,20.68
2018-09-26T14:26:24.177Z,20.68
2018-09-26T14:28:52.108Z,20.67
2018-09-26T14:31:20.755Z,20.77
2018-09-26T14:33:48.816Z,20.76
2018-09-26T14:36:16.923Z,20.74
2018-09-26T14:38:44.949Z,20.69
2018-09-26T14:41:12.960Z,20.66
2018-09-26T14:43:41.001Z,20.73
2018-09-26T14:46:09.144Z,20.75
2018-09-26T14:48:37.175Z,20.73
2018-09-26T14:51:05.553Z,20.75
2018-09-26T14:53:33.807Z,20.69
2018-09-26T14:56:01.841Z,20.66
2018-09-26T14:58:29.876Z,20.67
2018-09-26T15:00:57.884Z,20.72
2018-09-26T15:03:25.919Z,20.78
2018-09-26T15:05:54.139Z,20.69
2018-09-26T15:08:22.268Z,20.74
2018-09-26T15:10:50.224Z,20.75
2018-09-26T15:13:18.252Z,20.67
2018-09-26T15:15:46.286Z,20.61
2018-09-26T15:18:14.325Z,20.56
2018-09-26T15:20:42.632Z,20.48
2018-09-26T15:23:10.700Z,20.48
2018-09-26T15:25:38.728Z,20.46
2018-09-26T15:28:06.857Z,20.44
2018-09-26T15:30:34.831Z,20.41
2018-09-26T15:33:02.852Z,20.36
2018-09-26T15:35:30.956Z,20.34
2018-09-26T15:37:59.100Z,20.30
2018-09-26T15:40:27.187Z,20.26
2018-09-26T15:42:55.187Z,20.21
2018-09-26T15:45:23.209Z,20.15
2018-09-26T15:47:51.231Z,20.13
2018-09-26T15:50:19.501Z,20.07
2018-09-26T15:52:47.543Z,20.00
2018-09-26T15:55:15.613Z,20.00
2018-09-26T15:57:43.629Z,19.99
2018-09-26T16:00:11.671Z,19.91
2018-09-26T16:02:39.804Z,19.90
2018-09-26T16:05:18.625Z,19.85
2018-09-26T16:07:46.651Z,19.75
2018-09-26T16:10:14.792Z,19.68
2018-09-26T16:12:42.846Z,19.63
2018-09-26T16:15:10.872Z,19.58
2018-09-26T16:17:38.884Z,19.54
2018-09-26T16:20:07.083Z,19.51
2018-09-26T16:22:35.120Z,19.47
2018-09-26T16:25:03.323Z,19.41
2018-09-26T16:27:31.572Z,19.40
2018-09-26T16:29:59.601Z,19.35
2018-09-26T16:32:27.630Z,19.30
2018-09-26T16:34:55.660Z,19.25
2018-09-26T16:37:23.683Z,19.19
2018-09-26T16:39:51.721Z,19.13
2018-09-26T16:42:20.045Z,19.08
2018-09-26T16:44:48.053Z,19.03
2018-09-26T16:47:16.104Z,18.97
2018-09-26T16:49:44.107Z,18.90
2018-09-26T16:52:12.414Z,18.85
2018-09-26T16:54:40.656Z,18.80
2018-09-26T16:57:08.683Z,18.80
2018-09-26T16:59:36.799Z,18.72
2018-09-26T17:02:05.821Z,18.65
2018-09-26T17:04:33.853Z,18.64
2018-09-26T17:07:01.946Z,18.63
2018-09-26T17:09:30.288Z,18.56
2018-09-26T17:11:58.359Z,18.53
2018-09-26T17:14:26.446Z,18.50
2018-09-26T17:16:54.528Z,18.43
2018-09-26T17:19:22.796Z,18.40
2018-09-26T17:21:50.821Z,18.38
2018-09-26T17:24:18.896Z,18.31
2018-09-26T17:26:46.872Z,18.29
2018-09-26T17:29:14.920Z,18.26
2018-09-26T17:31:43.047Z,18.23
2018-09-26T17:34:11.211Z,18.19
2018-09-26T17:36:39.379Z,18.14
2018-09-26T17:39:08.109Z,18.07
2018-09-26T17:41:36.132Z,18.04
2018-09-26T17:44:04.762Z,18.02
2018-09-26T17:46:33.401Z,18.00
2018-09-26T17:49:01.424Z,17.97
2018-09-26T17:51:29.496Z,17.94
2018-09-26T17:53:57.629Z,17.93
2018-09-26T17:56:25.792Z,17.89
2018-09-26T17:58:54.344Z,17.85
2018-09-26T18:01:22.402Z,17.82
2018-09-26T18:03:50.588Z,17.81
2018-09-26T18:06:19.126Z,17.81
2018-09-26T18:08:47.162Z,17.82
2018-09-26T18:11:15.219Z,17.79
2018-09-26T18:13:43.244Z,17.79
2018-09-26T18:16:11.292Z,17.79
2018-09-26T18:18:39.329Z,17.78
2018-09-26T18:21:07.356Z,17.78
2018-09-26T18:23:35.400Z,17.77
2018-09-26T18:26:03.589Z,17.78
2018-09-26T18:28:31.779Z,17.77
2018-09-26T18:30:59.866Z,17.73
2018-09-26T18:33:27.898Z,17.70
2018-09-26T18:35:56.596Z,17.68
2018-09-26T18:38:24.620Z,17.67
2018-09-26T18:40:52.811Z,17.63
2018-09-26T18:43:20.866Z,17.59
2018-09-26T18:45:49.531Z,17.52
2018-09-26T18:48:17.702Z,17.45
2018-09-26T18:50:46.365Z,17.41
2018-09-26T18:53:14.471Z,17.34
2018-09-26T18:55:42.616Z,17.25
2018-09-26T18:58:10.631Z,17.18
2018-09-26T19:00:38.653Z,17.10
2018-09-26T19:03:06.884Z,17.04
2018-09-26T19:05:35.361Z,17.01
2018-09-26T19:08:03.385Z,16.95
2018-09-26T19:10:32.146Z,16.93
2018-09-26T19:13:00.166Z,16.85
2018-09-26T19:15:28.188Z,16.84
2018-09-26T19:17:56.232Z,16.80
2018-09-26T19:20:24.373Z,16.77
2018-09-26T19:22:52.404Z,16.74
2018-09-26T19:25:20.487Z,16.69
2018-09-26T19:27:48.507Z,16.63
2018-09-26T19:30:16.544Z,16.58
2018-09-26T19:32:44.599Z,16.51
2018-09-26T19:35:12.654Z,16.45
2018-09-26T19:37:40.672Z,16.40
2018-09-26T19:40:09.068Z,16.40
2018-09-26T19:42:37.136Z,16.38
2018-09-26T19:45:05.485Z,16.32
2018-09-26T19:47:33.475Z,16.27
2018-09-26T19:50:01.508Z,16.21
2018-09-26T19:52:29.592Z,16.13
2018-09-26T19:54:57.604Z,16.07
2018-09-26T19:57:25.624Z,16.04
2018-09-26T19:59:53.826Z,16.01
2018-09-26T20:02:21.853Z,15.99
2018-09-26T20:04:49.915Z,15.93
2018-09-26T20:07:18.023Z,15.92
2018-09-26T20:09:46.052Z,15.88
2018-09-26T20:12:14.088Z,15.82
2018-09-26T20:14:42.120Z,15.80
2018-09-26T20:17:10.266Z,15.79
2018-09-26T20:19:38.339Z,15.78
2018-09-26T20:22:07.286Z,15.75
2018-09-26T20:24:35.741Z,15.71
2018-09-26T20:27:04.697Z,15.67
2018-09-26T20:29:32.810Z,15.64
2018-09-26T20:32:00.897Z,15.63
2018-09-26T20:34:44.395Z,15.59
2018-09-26T20:37:12.541Z,15.54
2018-09-26T20:39:40.452Z,15.51
2018-09-26T20:42:08.501Z,15.49
2018-09-26T20:44:36.536Z,15.46
2018-09-26T20:47:07.290Z,15.42
2018-09-26T20:49:35.312Z,15.42
2018-09-26T20:52:03.468Z,15.40
2018-09-26T20:54:31.463Z,15.39
2018-09-26T20:56:59.786Z,15.35
2018-09-26T20:59:27.831Z,15.32
2018-09-26T21:01:55.872Z,15.31
2018-09-26T21:04:23.911Z,15.31
2018-09-26T21:06:52.091Z,15.30
2018-09-26T21:09:20.120Z,15.29
2018-09-26T21:11:48.231Z,15.26
2018-09-26T21:14:16.216Z,15.24
2018-09-26T21:16:44.249Z,15.21
2018-09-26T21:19:12.287Z,15.24
2018-09-26T21:21:40.480Z,15.22
2018-09-26T21:24:08.500Z,15.17
2018-09-26T21:26:36.523Z,15.15
2018-09-26T21:29:04.933Z,15.16
2018-09-26T21:31:33.601Z,15.15
2018-09-26T21:34:01.623Z,15.18
2018-09-26T21:36:29.664Z,15.17
2018-09-26T21:38:57.751Z,15.18
2018-09-26T21:41:25.722Z,15.19
2018-09-26T21:43:53.766Z,15.18
2018-09-26T21:46:21.797Z,15.16
2018-09-26T21:48:49.831Z,15.16
2018-09-26T21:51:17.849Z,15.15
2018-09-26T21:53:45.899Z,15.14
2018-09-26T21:56:13.920Z,15.13
2018-09-26T21:58:41.953Z,15.11
2018-09-26T22:01:16.190Z,15.09
2018-09-26T22:03:44.217Z,15.08
2018-09-26T22:06:13.431Z,15.07
2018-09-26T22:08:41.528Z,15.07
2018-09-26T22:11:09.720Z,15.08
2018-09-26T22:13:37.759Z,15.06
2018-09-26T22:16:05.788Z,15.03
2018-09-26T22:18:33.821Z,15.02
2018-09-26T22:21:01.856Z,14.99
2018-09-26T22:23:29.936Z,14.96
2018-09-26T22:25:58.066Z,14.98
2018-09-26T22:28:26.109Z,15.00
2018-09-26T22:30:54.143Z,15.00
2018-09-26T22:33:22.343Z,15.01
2018-09-26T22:35:50.372Z,14.99
2018-09-26T22:38:18.449Z,14.95
2018-09-26T22:40:46.581Z,14.95
2018-09-26T22:43:14.601Z,14.94
2018-09-26T22:48:17.080Z,14.89
2018-09-26T22:50:45.103Z,14.87
2018-09-26T22:53:13.129Z,14.83
2018-09-26T22:55:41.172Z,14.82
2018-09-26T22:58:09.286Z,14.80
2018-09-26T23:00:37.241Z,14.78
2018-09-26T23:03:05.312Z,14.78
2018-09-26T23:05:33.347Z,14.78
2018-09-26T23:08:01.392Z,14.76
2018-09-26T23:10:29.388Z,14.74
2018-09-26T23:12:58.040Z,14.74
2018-09-26T23:15:26.092Z,14.75
2018-09-26T23:17:54.126Z,14.75
2018-09-26T23:20:22.161Z,14.74
2018-09-26T23:22:50.191Z,14.75
2018-09-26T23:25:18.245Z,14.76
2018-09-26T23:27:47.149Z,14.76
2018-09-26T23:30:15.184Z,14.77
2018-09-26T23:32:43.234Z,14.78
2018-09-26T23:35:11.257Z,14.77
2018-09-26T23:37:39.296Z,14.80
2018-09-26T23:40:07.332Z,14.83
2018-09-26T23:42:35.364Z,14.81
2018-09-26T23:45:03.392Z,14.77
2018-09-26T23:47:31.420Z,14.77
2018-09-26T23:49:59.451Z,14.78
2018-09-26T23:52:27.479Z,14.77
2018-09-26T23:54:55.675Z,14.79
2018-09-26T23:57:23.720Z,14.81
2018-09-26T23:59:51.735Z,14.81
